Time;durP1;ratioP1;P1;durP2;ratioP2;P2;SDS_P1;SDS_P2;PMS_P1;PMS_P2;Temp;Humidity;BMP_temperature;BMP_pressure;BME280_temperature;BME280_humidity;BME280_pressure;Samples;Min_cycle;Max_cycle;Signal;HPM_P1;HPM_P2
2022/09/30 00:00:32;;;;;;;13.8;11.95;;;;;;;8.14;100;94401.89;;;;
2022/09/30 00:01:33;;;;;;;13.8;11.95;;;;;;;8.14;100;94401.89;;;;
2022/09/30 00:02:34;;;;;;;14.15;12.65;;;;;;;8.15;100;94413.1;;;;
2022/09/30 00:03:35;;;;;;;14.15;12.65;;;;;;;8.15;100;94413.1;;;;
2022/09/30 00:04:36;;;;;;;14.15;12.65;;;;;;;8.15;100;94413.1;;;;
2022/09/30 00:05:37;;;;;;;14.15;12.65;;;;;;;8.15;100;94413.1;;;;
2022/09/30 00:06:37;;;;;;;14.15;12.65;;;;;;;8.15;100;94413.1;;;;
2022/09/30 00:07:38;;;;;;;14.15;12.65;;;;;;;8.15;100;94413.1;;;;
2022/09/30 00:08:38;;;;;;;14.15;12.65;;;;;;;8.15;100;94413.1;;;;
2022/09/30 00:09:39;;;;;;;14.15;12.65;;;;;;;8.15;100;94413.1;;;;
2022/09/30 00:10:39;;;;;;;14.15;12.65;;;;;;;8.15;100;94413.1;;;;
2022/09/30 00:11:40;;;;;;;14.15;12.65;;;;;;;8.15;100;94413.1;;;;
2022/09/30 00:12:41;;;;;;;14.15;12.65;;;;;;;8.15;100;94413.1;;;;
2022/09/30 00:13:42;;;;;;;14.1;12.6;;;;;;;8.26;100;94408.08;;;;
2022/09/30 00:14:44;;;;;;;14.1;12.6;;;;;;;8.26;100;94408.08;;;;
2022/09/30 00:15:44;;;;;;;14.1;12.6;;;;;;;8.26;100;94408.08;;;;
2022/09/30 00:16:45;;;;;;;14.1;12.6;;;;;;;8.26;100;94408.08;;;;
2022/09/30 00:17:46;;;;;;;14.1;12.6;;;;;;;8.26;100;94408.08;;;;
2022/09/30 00:18:46;;;;;;;14.1;12.6;;;;;;;8.26;100;94408.08;;;;
2022/09/30 00:19:48;;;;;;;14.1;12.6;;;;;;;8.26;100;94408.08;;;;
2022/09/30 00:20:49;;;;;;;14.1;12.6;;;;;;;8.26;100;94408.08;;;;
2022/09/30 00:21:50;;;;;;;14.1;12.6;;;;;;;8.26;100;94408.08;;;;
2022/09/30 00:22:51;;;;;;;14.1;12.6;;;;;;;8.26;100;94408.08;;;;
2022/09/30 00:23:51;;;;;;;14.1;12.6;;;;;;;8.26;100;94408.08;;;;
2022/09/30 00:24:52;;;;;;;14.45;12.95;;;;;;;8.33;100;94416.69;;;;
2022/09/30 00:25:52;;;;;;;14.45;12.95;;;;;;;8.33;100;94416.69;;;;
2022/09/30 00:26:57;;;;;;;14.45;12.95;;;;;;;8.33;100;94416.69;;;;
2022/09/30 00:27:57;;;;;;;14.45;12.95;;;;;;;8.33;100;94416.69;;;;
2022/09/30 00:28:58;;;;;;;14.45;12.95;;;;;;;8.33;100;94416.69;;;;
2022/09/30 00:30:00;;;;;;;14.45;12.95;;;;;;;8.33;100;94416.69;;;;
2022/09/30 00:31:00;;;;;;;14.45;12.95;;;;;;;8.33;100;94416.69;;;;
2022/09/30 00:32:04;;;;;;;14.45;12.95;;;;;;;8.33;100;94416.69;;;;
2022/09/30 00:33:04;;;;;;;14.45;12.95;;;;;;;8.33;100;94416.69;;;;
2022/09/30 00:34:05;;;;;;;14.45;12.95;;;;;;;8.33;100;94416.69;;;;
2022/09/30 00:35:06;;;;;;;13.45;12.05;;;;;;;8.37;100;94424.05;;;;
2022/09/30 00:36:06;;;;;;;13.45;12.05;;;;;;;8.37;100;94424.05;;;;
2022/09/30 00:37:08;;;;;;;13.45;12.05;;;;;;;8.37;100;94424.05;;;;
2022/09/30 00:38:08;;;;;;;13.45;12.05;;;;;;;8.37;100;94424.05;;;;
2022/09/30 00:39:09;;;;;;;13.45;12.05;;;;;;;8.37;100;94424.05;;;;
2022/09/30 00:40:12;;;;;;;13.45;12.05;;;;;;;8.37;100;94424.05;;;;
2022/09/30 00:41:12;;;;;;;13.45;12.05;;;;;;;8.37;100;94424.05;;;;
2022/09/30 00:42:13;;;;;;;13.45;12.05;;;;;;;8.37;100;94424.05;;;;
2022/09/30 00:43:14;;;;;;;13.45;12.05;;;;;;;8.37;100;94424.05;;;;
2022/09/30 00:44:17;;;;;;;13.45;12.05;;;;;;;8.37;100;94424.05;;;;
2022/09/30 00:45:53;;;;;;;13.45;12;;;;;;;8.31;100;94413.9;;;;
2022/09/30 00:46:58;;;;;;;13.45;12;;;;;;;8.31;100;94413.9;;;;
2022/09/30 00:47:59;;;;;;;13.45;12;;;;;;;8.31;100;94413.9;;;;
2022/09/30 00:49:06;;;;;;;13.45;12;;;;;;;8.31;100;94413.9;;;;
2022/09/30 00:50:12;;;;;;;13.45;12;;;;;;;8.31;100;94413.9;;;;
2022/09/30 00:51:17;;;;;;;13.45;12;;;;;;;8.31;100;94413.9;;;;
2022/09/30 00:52:25;;;;;;;13.45;12;;;;;;;8.31;100;94413.9;;;;
2022/09/30 00:53:28;;;;;;;13.45;12;;;;;;;8.31;100;94413.9;;;;
2022/09/30 00:54:33;;;;;;;13.45;12;;;;;;;8.31;100;94413.9;;;;
2022/09/30 00:55:34;;;;;;;13.45;12;;;;;;;8.31;100;94413.9;;;;
2022/09/30 00:56:43;;;;;;;12.85;11.25;;;;;;;8.26;100;94414.65;;;;
2022/09/30 00:57:49;;;;;;;12.85;11.25;;;;;;;8.26;100;94414.65;;;;
2022/09/30 00:58:49;;;;;;;12.85;11.25;;;;;;;8.26;100;94414.65;;;;
2022/09/30 00:59:53;;;;;;;12.85;11.25;;;;;;;8.26;100;94414.65;;;;
2022/09/30 01:00:54;;;;;;;12.85;11.25;;;;;;;8.26;100;94414.65;;;;
2022/09/30 01:01:55;;;;;;;12.85;11.25;;;;;;;8.26;100;94414.65;;;;
2022/09/30 01:02:56;;;;;;;12.85;11.25;;;;;;;8.26;100;94414.65;;;;
2022/09/30 01:03:57;;;;;;;12.85;11.25;;;;;;;8.26;100;94414.65;;;;
2022/09/30 01:05:01;;;;;;;12.85;11.25;;;;;;;8.26;100;94414.65;;;;
2022/09/30 01:06:02;;;;;;;12.85;11.25;;;;;;;8.26;100;94414.65;;;;
2022/09/30 01:07:04;;;;;;;12.75;11.3;;;;;;;8.27;100;94439.14;;;;
2022/09/30 01:08:06;;;;;;;12.75;11.3;;;;;;;8.27;100;94439.14;;;;
2022/09/30 01:09:07;;;;;;;12.75;11.3;;;;;;;8.27;100;94439.14;;;;
2022/09/30 01:10:09;;;;;;;12.75;11.3;;;;;;;8.27;100;94439.14;;;;
2022/09/30 01:11:09;;;;;;;12.75;11.3;;;;;;;8.27;100;94439.14;;;;
2022/09/30 01:12:10;;;;;;;12.75;11.3;;;;;;;8.27;100;94439.14;;;;
2022/09/30 01:13:13;;;;;;;12.75;11.3;;;;;;;8.27;100;94439.14;;;;
2022/09/30 01:14:16;;;;;;;12.75;11.3;;;;;;;8.27;100;94439.14;;;;
2022/09/30 01:15:21;;;;;;;12.75;11.3;;;;;;;8.27;100;94439.14;;;;
2022/09/30 01:16:32;;;;;;;12.75;11.3;;;;;;;8.27;100;94439.14;;;;
2022/09/30 01:17:49;;;;;;;13.2;11.9;;;;;;;8.21;100;94439.08;;;;
2022/09/30 01:18:58;;;;;;;13.2;11.9;;;;;;;8.21;100;94439.08;;;;
2022/09/30 01:20:23;;;;;;;13.2;11.9;;;;;;;8.21;100;94439.08;;;;
2022/09/30 01:23:12;;;;;;;13.2;11.9;;;;;;;8.21;100;94439.08;;;;
2022/09/30 01:24:38;;;;;;;13.2;11.9;;;;;;;8.21;100;94439.08;;;;
2022/09/30 01:25:55;;;;;;;13.2;11.9;;;;;;;8.21;100;94439.08;;;;
2022/09/30 01:27:14;;;;;;;13.2;11.9;;;;;;;8.21;100;94439.08;;;;
2022/09/30 01:28:30;;;;;;;15.3;13.2;;;;;;;8.14;100;94459.38;;;;
2022/09/30 01:30:22;;;;;;;15.3;13.2;;;;;;;8.14;100;94459.38;;;;
2022/09/30 01:31:41;;;;;;;15.3;13.2;;;;;;;8.14;100;94459.38;;;;
2022/09/30 01:32:52;;;;;;;15.3;13.2;;;;;;;8.14;100;94459.38;;;;
2022/09/30 01:34:08;;;;;;;15.3;13.2;;;;;;;8.14;100;94459.38;;;;
2022/09/30 01:35:15;;;;;;;15.3;13.2;;;;;;;8.14;100;94459.38;;;;
2022/09/30 01:36:26;;;;;;;15.3;13.2;;;;;;;8.14;100;94459.38;;;;
2022/09/30 01:37:40;;;;;;;15.3;13.2;;;;;;;8.14;100;94459.38;;;;
2022/09/30 01:38:50;;;;;;;18.7;14.25;;;;;;;8.12;100;94468.41;;;;
2022/09/30 01:40:00;;;;;;;18.7;14.25;;;;;;;8.12;100;94468.41;;;;
2022/09/30 01:41:09;;;;;;;18.7;14.25;;;;;;;8.12;100;94468.41;;;;
2022/09/30 01:42:19;;;;;;;18.7;14.25;;;;;;;8.12;100;94468.41;;;;
2022/09/30 01:43:30;;;;;;;18.7;14.25;;;;;;;8.12;100;94468.41;;;;
2022/09/30 01:44:41;;;;;;;18.7;14.25;;;;;;;8.12;100;94468.41;;;;
2022/09/30 01:45:51;;;;;;;18.7;14.25;;;;;;;8.12;100;94468.41;;;;
2022/09/30 01:46:56;;;;;;;18.7;14.25;;;;;;;8.12;100;94468.41;;;;
2022/09/30 01:48:06;;;;;;;18.7;14.25;;;;;;;8.12;100;94468.41;;;;
2022/09/30 01:49:15;;;;;;;16.85;14.3;;;;;;;8.17;100;94478.31;;;;
2022/09/30 01:50:22;;;;;;;16.85;14.3;;;;;;;8.17;100;94478.31;;;;
2022/09/30 01:51:30;;;;;;;16.85;14.3;;;;;;;8.17;100;94478.31;;;;
2022/09/30 01:52:36;;;;;;;16.85;14.3;;;;;;;8.17;100;94478.31;;;;
2022/09/30 01:53:43;;;;;;;16.85;14.3;;;;;;;8.17;100;94478.31;;;;
2022/09/30 01:54:48;;;;;;;16.85;14.3;;;;;;;8.17;100;94478.31;;;;
2022/09/30 01:55:58;;;;;;;16.85;14.3;;;;;;;8.17;100;94478.31;;;;
2022/09/30 01:57:04;;;;;;;16.85;14.3;;;;;;;8.17;100;94478.31;;;;
2022/09/30 01:58:11;;;;;;;16.85;14.3;;;;;;;8.17;100;94478.31;;;;
2022/09/30 01:59:18;;;;;;;16.85;14.3;;;;;;;8.17;100;94478.31;;;;
2022/09/30 02:00:25;;;;;;;16.6;14;;;;;;;8.16;100;94472.74;;;;
2022/09/30 02:01:26;;;;;;;16.6;14;;;;;;;8.16;100;94472.74;;;;
2022/09/30 02:02:31;;;;;;;16.6;14;;;;;;;8.16;100;94472.74;;;;
2022/09/30 02:03:35;;;;;;;16.6;14;;;;;;;8.16;100;94472.74;;;;
2022/09/30 02:04:41;;;;;;;16.6;14;;;;;;;8.16;100;94472.74;;;;
2022/09/30 02:05:46;;;;;;;16.6;14;;;;;;;8.16;100;94472.74;;;;
2022/09/30 02:06:54;;;;;;;16.6;14;;;;;;;8.16;100;94472.74;;;;
2022/09/30 02:07:59;;;;;;;16.6;14;;;;;;;8.16;100;94472.74;;;;
2022/09/30 02:09:04;;;;;;;16.6;14;;;;;;;8.16;100;94472.74;;;;
2022/09/30 02:10:10;;;;;;;16.6;14;;;;;;;8.16;100;94472.74;;;;
2022/09/30 02:11:16;;;;;;;15.6;13.15;;;;;;;8.14;100;94476.9;;;;
2022/09/30 02:12:20;;;;;;;15.6;13.15;;;;;;;8.14;100;94476.9;;;;
2022/09/30 02:13:25;;;;;;;15.6;13.15;;;;;;;8.14;100;94476.9;;;;
2022/09/30 02:14:31;;;;;;;15.6;13.15;;;;;;;8.14;100;94476.9;;;;
2022/09/30 02:15:39;;;;;;;15.6;13.15;;;;;;;8.14;100;94476.9;;;;
2022/09/30 02:16:50;;;;;;;15.6;13.15;;;;;;;8.14;100;94476.9;;;;
2022/09/30 02:17:57;;;;;;;15.6;13.15;;;;;;;8.14;100;94476.9;;;;
2022/09/30 02:19:02;;;;;;;15.6;13.15;;;;;;;8.14;100;94476.9;;;;
2022/09/30 02:20:10;;;;;;;15.6;13.15;;;;;;;8.14;100;94476.9;;;;
2022/09/30 02:21:16;;;;;;;14.7;12.15;;;;;;;8.14;100;94462.42;;;;
2022/09/30 02:22:20;;;;;;;14.7;12.15;;;;;;;8.14;100;94462.42;;;;
2022/09/30 02:23:26;;;;;;;14.7;12.15;;;;;;;8.14;100;94462.42;;;;
2022/09/30 02:24:31;;;;;;;14.7;12.15;;;;;;;8.14;100;94462.42;;;;
2022/09/30 02:25:35;;;;;;;14.7;12.15;;;;;;;8.14;100;94462.42;;;;
2022/09/30 02:26:41;;;;;;;14.7;12.15;;;;;;;8.14;100;94462.42;;;;
2022/09/30 02:27:47;;;;;;;14.7;12.15;;;;;;;8.14;100;94462.42;;;;
2022/09/30 02:28:50;;;;;;;14.7;12.15;;;;;;;8.14;100;94462.42;;;;
2022/09/30 02:29:56;;;;;;;14.7;12.15;;;;;;;8.14;100;94462.42;;;;
2022/09/30 02:30:59;;;;;;;14.7;12.15;;;;;;;8.14;100;94462.42;;;;
2022/09/30 02:32:02;;;;;;;13.7;12.2;;;;;;;7.94;100;94457.47;;;;
2022/09/30 02:33:06;;;;;;;13.7;12.2;;;;;;;7.94;100;94457.47;;;;
2022/09/30 02:34:12;;;;;;;13.7;12.2;;;;;;;7.94;100;94457.47;;;;
2022/09/30 02:35:19;;;;;;;13.7;12.2;;;;;;;7.94;100;94457.47;;;;
2022/09/30 02:36:26;;;;;;;13.7;12.2;;;;;;;7.94;100;94457.47;;;;
2022/09/30 02:37:31;;;;;;;13.7;12.2;;;;;;;7.94;100;94457.47;;;;
2022/09/30 02:38:35;;;;;;;13.7;12.2;;;;;;;7.94;100;94457.47;;;;
2022/09/30 02:39:41;;;;;;;13.7;12.2;;;;;;;7.94;100;94457.47;;;;
2022/09/30 02:40:49;;;;;;;13.7;12.2;;;;;;;7.94;100;94457.47;;;;
2022/09/30 02:41:54;;;;;;;13.7;12.2;;;;;;;7.94;100;94457.47;;;;
2022/09/30 02:43:02;;;;;;;12.25;10.95;;;;;;;7.71;100;94443.19;;;;
2022/09/30 02:44:04;;;;;;;12.25;10.95;;;;;;;7.71;100;94443.19;;;;
2022/09/30 02:45:07;;;;;;;12.25;10.95;;;;;;;7.71;100;94443.19;;;;
2022/09/30 02:46:12;;;;;;;12.25;10.95;;;;;;;7.71;100;94443.19;;;;
2022/09/30 02:47:24;;;;;;;12.25;10.95;;;;;;;7.71;100;94443.19;;;;
2022/09/30 02:48:31;;;;;;;12.25;10.95;;;;;;;7.71;100;94443.19;;;;
2022/09/30 02:49:44;;;;;;;12.25;10.95;;;;;;;7.71;100;94443.19;;;;
2022/09/30 02:50:48;;;;;;;12.25;10.95;;;;;;;7.71;100;94443.19;;;;
2022/09/30 02:51:53;;;;;;;12.25;10.95;;;;;;;7.71;100;94443.19;;;;
2022/09/30 02:53:07;;;;;;;12.25;10.95;;;;;;;7.71;100;94443.19;;;;
2022/09/30 02:54:18;;;;;;;11.45;10.25;;;;;;;7.49;100;94480.86;;;;
2022/09/30 02:55:29;;;;;;;11.45;10.25;;;;;;;7.49;100;94480.86;;;;
2022/09/30 02:56:40;;;;;;;11.45;10.25;;;;;;;7.49;100;94480.86;;;;
2022/09/30 02:57:50;;;;;;;11.45;10.25;;;;;;;7.49;100;94480.86;;;;
2022/09/30 02:58:58;;;;;;;11.45;10.25;;;;;;;7.49;100;94480.86;;;;
2022/09/30 02:59:59;;;;;;;11.45;10.25;;;;;;;7.49;100;94480.86;;;;
2022/09/30 03:01:00;;;;;;;11.45;10.25;;;;;;;7.49;100;94480.86;;;;
2022/09/30 03:02:01;;;;;;;11.45;10.25;;;;;;;7.49;100;94480.86;;;;
2022/09/30 03:03:02;;;;;;;11.45;10.25;;;;;;;7.49;100;94480.86;;;;
2022/09/30 03:04:06;;;;;;;12.6;10.15;;;;;;;7.3;100;94492.81;;;;
2022/09/30 03:05:10;;;;;;;12.6;10.15;;;;;;;7.3;100;94492.81;;;;
2022/09/30 03:06:11;;;;;;;12.6;10.15;;;;;;;7.3;100;94492.81;;;;
2022/09/30 03:07:12;;;;;;;12.6;10.15;;;;;;;7.3;100;94492.81;;;;
2022/09/30 03:08:13;;;;;;;12.6;10.15;;;;;;;7.3;100;94492.81;;;;
2022/09/30 03:09:14;;;;;;;12.6;10.15;;;;;;;7.3;100;94492.81;;;;
2022/09/30 03:10:15;;;;;;;12.6;10.15;;;;;;;7.3;100;94492.81;;;;
2022/09/30 03:11:17;;;;;;;12.6;10.15;;;;;;;7.3;100;94492.81;;;;
2022/09/30 03:12:21;;;;;;;12.6;10.15;;;;;;;7.3;100;94492.81;;;;
2022/09/30 03:13:33;;;;;;;12.6;10.15;;;;;;;7.3;100;94492.81;;;;
2022/09/30 03:14:58;;;;;;;13.25;10.95;;;;;;;7.09;100;94501.01;;;;
2022/09/30 03:16:18;;;;;;;13.25;10.95;;;;;;;7.09;100;94501.01;;;;
2022/09/30 03:17:30;;;;;;;13.25;10.95;;;;;;;7.09;100;94501.01;;;;
2022/09/30 03:18:45;;;;;;;13.25;10.95;;;;;;;7.09;100;94501.01;;;;
2022/09/30 03:20:00;;;;;;;13.25;10.95;;;;;;;7.09;100;94501.01;;;;
2022/09/30 03:21:17;;;;;;;13.25;10.95;;;;;;;7.09;100;94501.01;;;;
2022/09/30 03:22:32;;;;;;;13.25;10.95;;;;;;;7.09;100;94501.01;;;;
2022/09/30 03:23:50;;;;;;;13.25;10.95;;;;;;;7.09;100;94501.01;;;;
2022/09/30 03:25:11;;;;;;;13.25;10.95;;;;;;;7.09;100;94501.01;;;;
2022/09/30 03:26:23;;;;;;;12.35;10.35;;;;;;;6.86;100;94512.44;;;;
2022/09/30 03:27:36;;;;;;;12.35;10.35;;;;;;;6.86;100;94512.44;;;;
2022/09/30 03:28:48;;;;;;;12.35;10.35;;;;;;;6.86;100;94512.44;;;;
2022/09/30 03:30:00;;;;;;;12.35;10.35;;;;;;;6.86;100;94512.44;;;;
2022/09/30 03:31:04;;;;;;;12.35;10.35;;;;;;;6.86;100;94512.44;;;;
2022/09/30 03:32:12;;;;;;;12.35;10.35;;;;;;;6.86;100;94512.44;;;;
2022/09/30 03:33:27;;;;;;;12.35;10.35;;;;;;;6.86;100;94512.44;;;;
2022/09/30 03:34:38;;;;;;;12.35;10.35;;;;;;;6.86;100;94512.44;;;;
2022/09/30 03:35:58;;;;;;;11.15;9.950001;;;;;;;6.75;100;94528.03;;;;
2022/09/30 03:37:07;;;;;;;11.15;9.950001;;;;;;;6.75;100;94528.03;;;;
2022/09/30 03:38:18;;;;;;;11.15;9.950001;;;;;;;6.75;100;94528.03;;;;
2022/09/30 03:39:34;;;;;;;11.15;9.950001;;;;;;;6.75;100;94528.03;;;;
2022/09/30 03:40:51;;;;;;;11.15;9.950001;;;;;;;6.75;100;94528.03;;;;
2022/09/30 03:42:02;;;;;;;11.15;9.950001;;;;;;;6.75;100;94528.03;;;;
2022/09/30 03:43:09;;;;;;;11.15;9.950001;;;;;;;6.75;100;94528.03;;;;
2022/09/30 03:44:18;;;;;;;11.15;9.950001;;;;;;;6.75;100;94528.03;;;;
2022/09/30 03:45:24;;;;;;;11.15;9.950001;;;;;;;6.75;100;94528.03;;;;
2022/09/30 03:46:32;;;;;;;11.15;9.950001;;;;;;;6.75;100;94528.03;;;;
2022/09/30 03:47:37;;;;;;;14.55;10.95;;;;;;;6.72;100;94537.63;;;;
2022/09/30 03:48:43;;;;;;;14.55;10.95;;;;;;;6.72;100;94537.63;;;;
2022/09/30 03:49:47;;;;;;;14.55;10.95;;;;;;;6.72;100;94537.63;;;;
2022/09/30 03:50:52;;;;;;;14.55;10.95;;;;;;;6.72;100;94537.63;;;;
2022/09/30 03:51:53;;;;;;;14.55;10.95;;;;;;;6.72;100;94537.63;;;;
2022/09/30 03:52:55;;;;;;;14.55;10.95;;;;;;;6.72;100;94537.63;;;;
2022/09/30 03:53:56;;;;;;;14.55;10.95;;;;;;;6.72;100;94537.63;;;;
2022/09/30 03:54:58;;;;;;;14.55;10.95;;;;;;;6.72;100;94537.63;;;;
2022/09/30 03:56:01;;;;;;;14.55;10.95;;;;;;;6.72;100;94537.63;;;;
2022/09/30 03:57:04;;;;;;;14.55;10.95;;;;;;;6.72;100;94537.63;;;;
2022/09/30 03:58:04;;;;;;;13.55;11.4;;;;;;;6.72;100;94524.91;;;;
2022/09/30 03:59:05;;;;;;;13.55;11.4;;;;;;;6.72;100;94524.91;;;;
2022/09/30 04:00:05;;;;;;;13.55;11.4;;;;;;;6.72;100;94524.91;;;;
2022/09/30 04:01:08;;;;;;;13.55;11.4;;;;;;;6.72;100;94524.91;;;;
2022/09/30 04:02:16;;;;;;;13.55;11.4;;;;;;;6.72;100;94524.91;;;;
2022/09/30 04:03:18;;;;;;;13.55;11.4;;;;;;;6.72;100;94524.91;;;;
2022/09/30 04:04:21;;;;;;;13.55;11.4;;;;;;;6.72;100;94524.91;;;;
2022/09/30 04:05:21;;;;;;;13.55;11.4;;;;;;;6.72;100;94524.91;;;;
2022/09/30 04:06:22;;;;;;;13.55;11.4;;;;;;;6.72;100;94524.91;;;;
2022/09/30 04:07:24;;;;;;;13.55;11.4;;;;;;;6.72;100;94524.91;;;;
2022/09/30 04:08:25;;;;;;;12.9;10.6;;;;;;;6.61;100;94525.56;;;;
2022/09/30 04:09:26;;;;;;;12.9;10.6;;;;;;;6.61;100;94525.56;;;;
2022/09/30 04:10:26;;;;;;;12.9;10.6;;;;;;;6.61;100;94525.56;;;;
2022/09/30 04:11:27;;;;;;;12.9;10.6;;;;;;;6.61;100;94525.56;;;;
2022/09/30 04:12:27;;;;;;;12.9;10.6;;;;;;;6.61;100;94525.56;;;;
2022/09/30 04:13:28;;;;;;;12.9;10.6;;;;;;;6.61;100;94525.56;;;;
2022/09/30 04:14:28;;;;;;;12.9;10.6;;;;;;;6.61;100;94525.56;;;;
2022/09/30 04:15:29;;;;;;;12.9;10.6;;;;;;;6.61;100;94525.56;;;;
2022/09/30 04:16:29;;;;;;;12.9;10.6;;;;;;;6.61;100;94525.56;;;;
2022/09/30 04:17:32;;;;;;;12.9;10.6;;;;;;;6.61;100;94525.56;;;;
2022/09/30 04:18:32;;;;;;;12.9;10.6;;;;;;;6.61;100;94525.56;;;;
2022/09/30 04:19:38;;;;;;;13.75;10.85;;;;;;;6.53;100;94545.84;;;;
2022/09/30 04:20:39;;;;;;;13.75;10.85;;;;;;;6.53;100;94545.84;;;;
2022/09/30 04:21:39;;;;;;;13.75;10.85;;;;;;;6.53;100;94545.84;;;;
2022/09/30 04:22:40;;;;;;;13.75;10.85;;;;;;;6.53;100;94545.84;;;;
2022/09/30 04:23:40;;;;;;;13.75;10.85;;;;;;;6.53;100;94545.84;;;;
2022/09/30 04:24:42;;;;;;;13.75;10.85;;;;;;;6.53;100;94545.84;;;;
2022/09/30 04:25:43;;;;;;;13.75;10.85;;;;;;;6.53;100;94545.84;;;;
2022/09/30 04:26:51;;;;;;;13.75;10.85;;;;;;;6.53;100;94545.84;;;;
2022/09/30 04:27:51;;;;;;;13.75;10.85;;;;;;;6.53;100;94545.84;;;;
2022/09/30 04:28:57;;;;;;;13.75;10.85;;;;;;;6.53;100;94545.84;;;;
2022/09/30 04:29:57;;;;;;;13.6;11.25;;;;;;;6.56;100;94548.58;;;;
2022/09/30 04:30:58;;;;;;;13.6;11.25;;;;;;;6.56;100;94548.58;;;;
2022/09/30 04:31:59;;;;;;;13.6;11.25;;;;;;;6.56;100;94548.58;;;;
2022/09/30 04:33:00;;;;;;;13.6;11.25;;;;;;;6.56;100;94548.58;;;;
2022/09/30 04:34:00;;;;;;;13.6;11.25;;;;;;;6.56;100;94548.58;;;;
2022/09/30 04:35:01;;;;;;;13.6;11.25;;;;;;;6.56;100;94548.58;;;;
2022/09/30 04:36:01;;;;;;;13.6;11.25;;;;;;;6.56;100;94548.58;;;;
2022/09/30 04:37:03;;;;;;;13.6;11.25;;;;;;;6.56;100;94548.58;;;;
2022/09/30 04:38:06;;;;;;;13.6;11.25;;;;;;;6.56;100;94548.58;;;;
2022/09/30 04:39:06;;;;;;;13.6;11.25;;;;;;;6.56;100;94548.58;;;;
2022/09/30 04:40:08;;;;;;;14.1;11.25;;;;;;;6.59;100;94563.51;;;;
2022/09/30 04:41:10;;;;;;;14.1;11.25;;;;;;;6.59;100;94563.51;;;;
2022/09/30 04:42:13;;;;;;;14.1;11.25;;;;;;;6.59;100;94563.51;;;;
2022/09/30 04:43:15;;;;;;;14.1;11.25;;;;;;;6.59;100;94563.51;;;;
2022/09/30 04:44:15;;;;;;;14.1;11.25;;;;;;;6.59;100;94563.51;;;;
2022/09/30 04:45:16;;;;;;;14.1;11.25;;;;;;;6.59;100;94563.51;;;;
2022/09/30 04:46:16;;;;;;;14.1;11.25;;;;;;;6.59;100;94563.51;;;;
2022/09/30 04:47:19;;;;;;;14.1;11.25;;;;;;;6.59;100;94563.51;;;;
2022/09/30 04:48:20;;;;;;;14.1;11.25;;;;;;;6.59;100;94563.51;;;;
2022/09/30 04:49:21;;;;;;;14.1;11.25;;;;;;;6.59;100;94563.51;;;;
2022/09/30 04:50:21;;;;;;;14.1;11.25;;;;;;;6.59;100;94563.51;;;;
2022/09/30 04:51:22;;;;;;;12.5;10.1;;;;;;;6.6;100;94570.78;;;;
2022/09/30 04:52:22;;;;;;;12.5;10.1;;;;;;;6.6;100;94570.78;;;;
2022/09/30 04:53:23;;;;;;;12.5;10.1;;;;;;;6.6;100;94570.78;;;;
2022/09/30 04:54:23;;;;;;;12.5;10.1;;;;;;;6.6;100;94570.78;;;;
2022/09/30 04:55:24;;;;;;;12.5;10.1;;;;;;;6.6;100;94570.78;;;;
2022/09/30 04:56:25;;;;;;;12.5;10.1;;;;;;;6.6;100;94570.78;;;;
2022/09/30 04:57:26;;;;;;;12.5;10.1;;;;;;;6.6;100;94570.78;;;;
2022/09/30 04:58:26;;;;;;;12.5;10.1;;;;;;;6.6;100;94570.78;;;;
2022/09/30 04:59:28;;;;;;;12.5;10.1;;;;;;;6.6;100;94570.78;;;;
2022/09/30 05:00:28;;;;;;;12.5;10.1;;;;;;;6.6;100;94570.78;;;;
2022/09/30 05:01:29;;;;;;;10.35;8.749999;;;;;;;6.59;100;94589.76;;;;
2022/09/30 05:02:29;;;;;;;10.35;8.749999;;;;;;;6.59;100;94589.76;;;;
2022/09/30 05:03:30;;;;;;;10.35;8.749999;;;;;;;6.59;100;94589.76;;;;
2022/09/30 05:04:32;;;;;;;10.35;8.749999;;;;;;;6.59;100;94589.76;;;;
2022/09/30 05:05:32;;;;;;;10.35;8.749999;;;;;;;6.59;100;94589.76;;;;
2022/09/30 05:06:33;;;;;;;10.35;8.749999;;;;;;;6.59;100;94589.76;;;;
2022/09/30 05:07:34;;;;;;;10.35;8.749999;;;;;;;6.59;100;94589.76;;;;
2022/09/30 05:08:34;;;;;;;10.35;8.749999;;;;;;;6.59;100;94589.76;;;;
2022/09/30 05:09:35;;;;;;;10.35;8.749999;;;;;;;6.59;100;94589.76;;;;
2022/09/30 05:10:36;;;;;;;10.35;8.749999;;;;;;;6.59;100;94589.76;;;;
2022/09/30 05:11:39;;;;;;;10.35;8.749999;;;;;;;6.59;100;94589.76;;;;
2022/09/30 05:12:40;;;;;;;10.15;8.4;;;;;;;6.54;100;94587.77;;;;
2022/09/30 05:13:41;;;;;;;10.15;8.4;;;;;;;6.54;100;94587.77;;;;
2022/09/30 05:14:42;;;;;;;10.15;8.4;;;;;;;6.54;100;94587.77;;;;
2022/09/30 05:15:42;;;;;;;10.15;8.4;;;;;;;6.54;100;94587.77;;;;
2022/09/30 05:16:43;;;;;;;10.15;8.4;;;;;;;6.54;100;94587.77;;;;
2022/09/30 05:17:43;;;;;;;10.15;8.4;;;;;;;6.54;100;94587.77;;;;
2022/09/30 05:18:48;;;;;;;10.15;8.4;;;;;;;6.54;100;94587.77;;;;
2022/09/30 05:19:49;;;;;;;10.15;8.4;;;;;;;6.54;100;94587.77;;;;
2022/09/30 05:20:49;;;;;;;10.15;8.4;;;;;;;6.54;100;94587.77;;;;
2022/09/30 05:21:51;;;;;;;10.15;8.4;;;;;;;6.54;100;94587.77;;;;
2022/09/30 05:22:52;;;;;;;10.75;9.049998;;;;;;;6.53;100;94597.16;;;;
2022/09/30 05:23:55;;;;;;;10.75;9.049998;;;;;;;6.53;100;94597.16;;;;
2022/09/30 05:24:55;;;;;;;10.75;9.049998;;;;;;;6.53;100;94597.16;;;;
2022/09/30 05:25:56;;;;;;;10.75;9.049998;;;;;;;6.53;100;94597.16;;;;
2022/09/30 05:26:57;;;;;;;10.75;9.049998;;;;;;;6.53;100;94597.16;;;;
2022/09/30 05:27:58;;;;;;;10.75;9.049998;;;;;;;6.53;100;94597.16;;;;
2022/09/30 05:28:59;;;;;;;10.75;9.049998;;;;;;;6.53;100;94597.16;;;;
2022/09/30 05:29:59;;;;;;;10.75;9.049998;;;;;;;6.53;100;94597.16;;;;
2022/09/30 05:31:00;;;;;;;10.75;9.049998;;;;;;;6.53;100;94597.16;;;;
2022/09/30 05:32:02;;;;;;;10.75;9.049998;;;;;;;6.53;100;94597.16;;;;
2022/09/30 05:33:03;;;;;;;10.75;9.049998;;;;;;;6.53;100;94597.16;;;;
2022/09/30 05:34:04;;;;;;;11.15;8.6;;;;;;;6.56;100;94600.19;;;;
2022/09/30 05:35:04;;;;;;;11.15;8.6;;;;;;;6.56;100;94600.19;;;;
2022/09/30 05:36:06;;;;;;;11.15;8.6;;;;;;;6.56;100;94600.19;;;;
2022/09/30 05:37:10;;;;;;;11.15;8.6;;;;;;;6.56;100;94600.19;;;;
2022/09/30 05:38:11;;;;;;;11.15;8.6;;;;;;;6.56;100;94600.19;;;;
2022/09/30 05:39:12;;;;;;;11.15;8.6;;;;;;;6.56;100;94600.19;;;;
2022/09/30 05:40:12;;;;;;;11.15;8.6;;;;;;;6.56;100;94600.19;;;;
2022/09/30 05:41:13;;;;;;;11.15;8.6;;;;;;;6.56;100;94600.19;;;;
2022/09/30 05:42:14;;;;;;;11.15;8.6;;;;;;;6.56;100;94600.19;;;;
2022/09/30 05:43:14;;;;;;;11.15;8.6;;;;;;;6.56;100;94600.19;;;;
2022/09/30 05:44:15;;;;;;;9.550001;8;;;;;;;6.67;100;94618.44;;;;
2022/09/30 05:45:15;;;;;;;9.550001;8;;;;;;;6.67;100;94618.44;;;;
2022/09/30 05:46:16;;;;;;;9.550001;8;;;;;;;6.67;100;94618.44;;;;
2022/09/30 05:47:18;;;;;;;9.550001;8;;;;;;;6.67;100;94618.44;;;;
2022/09/30 05:48:19;;;;;;;9.550001;8;;;;;;;6.67;100;94618.44;;;;
2022/09/30 05:49:20;;;;;;;9.550001;8;;;;;;;6.67;100;94618.44;;;;
2022/09/30 05:50:21;;;;;;;9.550001;8;;;;;;;6.67;100;94618.44;;;;
2022/09/30 05:51:23;;;;;;;9.550001;8;;;;;;;6.67;100;94618.44;;;;
2022/09/30 05:52:24;;;;;;;9.550001;8;;;;;;;6.67;100;94618.44;;;;
2022/09/30 05:53:25;;;;;;;9.550001;8;;;;;;;6.67;100;94618.44;;;;
2022/09/30 05:54:26;;;;;;;9.550001;8;;;;;;;6.67;100;94618.44;;;;
2022/09/30 05:55:27;;;;;;;12.4;9.299999;;;;;;;6.91;100;94632.23;;;;
2022/09/30 05:56:27;;;;;;;12.4;9.299999;;;;;;;6.91;100;94632.23;;;;
2022/09/30 05:57:28;;;;;;;12.4;9.299999;;;;;;;6.91;100;94632.23;;;;
2022/09/30 05:58:28;;;;;;;12.4;9.299999;;;;;;;6.91;100;94632.23;;;;
2022/09/30 05:59:29;;;;;;;12.4;9.299999;;;;;;;6.91;100;94632.23;;;;
2022/09/30 06:00:29;;;;;;;12.4;9.299999;;;;;;;6.91;100;94632.23;;;;
2022/09/30 06:01:30;;;;;;;12.4;9.299999;;;;;;;6.91;100;94632.23;;;;
2022/09/30 06:02:32;;;;;;;12.4;9.299999;;;;;;;6.91;100;94632.23;;;;
2022/09/30 06:03:32;;;;;;;12.4;9.299999;;;;;;;6.91;100;94632.23;;;;
2022/09/30 06:04:33;;;;;;;12.4;9.299999;;;;;;;6.91;100;94632.23;;;;
2022/09/30 06:05:34;;;;;;;13.35;10.45;;;;;;;7.39;100;94649.3;;;;
2022/09/30 06:06:35;;;;;;;13.35;10.45;;;;;;;7.39;100;94649.3;;;;
2022/09/30 06:07:36;;;;;;;13.35;10.45;;;;;;;7.39;100;94649.3;;;;
2022/09/30 06:08:37;;;;;;;13.35;10.45;;;;;;;7.39;100;94649.3;;;;
2022/09/30 06:09:37;;;;;;;13.35;10.45;;;;;;;7.39;100;94649.3;;;;
2022/09/30 06:10:38;;;;;;;13.35;10.45;;;;;;;7.39;100;94649.3;;;;
2022/09/30 06:11:41;;;;;;;13.35;10.45;;;;;;;7.39;100;94649.3;;;;
2022/09/30 06:12:41;;;;;;;13.35;10.45;;;;;;;7.39;100;94649.3;;;;
2022/09/30 06:13:42;;;;;;;13.35;10.45;;;;;;;7.39;100;94649.3;;;;
2022/09/30 06:14:46;;;;;;;13.35;10.45;;;;;;;7.39;100;94649.3;;;;
2022/09/30 06:15:47;;;;;;;13.35;10.45;;;;;;;7.39;100;94649.3;;;;
2022/09/30 06:16:54;;;;;;;16.75;12.45;;;;;;;8.15;100;94656.58;;;;
2022/09/30 06:17:55;;;;;;;16.75;12.45;;;;;;;8.15;100;94656.58;;;;
2022/09/30 06:18:56;;;;;;;16.75;12.45;;;;;;;8.15;100;94656.58;;;;
2022/09/30 06:19:56;;;;;;;16.75;12.45;;;;;;;8.15;100;94656.58;;;;
2022/09/30 06:20:57;;;;;;;16.75;12.45;;;;;;;8.15;100;94656.58;;;;
2022/09/30 06:21:59;;;;;;;16.75;12.45;;;;;;;8.15;100;94656.58;;;;
2022/09/30 06:22:59;;;;;;;16.75;12.45;;;;;;;8.15;100;94656.58;;;;
2022/09/30 06:24:00;;;;;;;16.75;12.45;;;;;;;8.15;100;94656.58;;;;
2022/09/30 06:25:02;;;;;;;16.75;12.45;;;;;;;8.15;100;94656.58;;;;
2022/09/30 06:26:04;;;;;;;16.75;12.45;;;;;;;8.15;100;94656.58;;;;
2022/09/30 06:27:07;;;;;;;15;12.1;;;;;;;9.06;100;94656.01;;;;
2022/09/30 06:28:07;;;;;;;15;12.1;;;;;;;9.06;100;94656.01;;;;
2022/09/30 06:29:08;;;;;;;15;12.1;;;;;;;9.06;100;94656.01;;;;
2022/09/30 06:30:08;;;;;;;15;12.1;;;;;;;9.06;100;94656.01;;;;
2022/09/30 06:31:10;;;;;;;15;12.1;;;;;;;9.06;100;94656.01;;;;